Terminal Aerodrome Forecast
Issued by NWS

Home | Current Version | Previous Version | Graphics & Text | Print | Product List | Glossary On
Versions: 1 2 3 4 5 6 7 8 9 10 11 12 13 14 15
000
FTUS43 KICT 202322
TAFHUT
TAF
KHUT 202322Z 2100/2124 18025G33KT P6SM BKN060
     FM210300 17023G32KT P6SM BKN030
     FM210600 18021G29KT P6SM BKN015
     FM211700 20017G25KT P6SM SHRA VCTS SCT015CB=

USA.gov is the U.S. government's official web portal to all federal, state and local government web resources and services.